Time;durP1;ratioP1;P1;durP2;ratioP2;P2;SDS_P1;SDS_P2;PMS_P1;PMS_P2;Temp;Humidity;BMP_temperature;BMP_pressure;BME280_temperature;BME280_humidity;BME280_pressure;Samples;Min_cycle;Max_cycle;Signal;HPM_P1;HPM_P2
2021/11/27 00:04:28;;;;;;;48.20;45.30;;;;;;;5.25;100.00;98523.25;2018640;71;32934;-73
2021/11/27 00:10:15;;;;;;;49.47;46.27;;;;;;;5.17;100.00;98505.27;2000397;71;33370;-73
2021/11/27 00:16:01;;;;;;;49.23;46.23;;;;;;;5.17;100.00;98487.39;2013693;71;32781;-73
2021/11/27 00:21:46;;;;;;;47.40;44.20;;;;;;;5.04;100.00;98473.91;2010050;71;32782;-74
2021/11/27 00:27:30;;;;;;;46.83;43.93;;;;;;;5.00;100.00;98453.63;2008419;71;33345;-73
2021/11/27 00:33:14;;;;;;;47.60;44.50;;;;;;;4.95;100.00;98428.98;2004175;71;32846;-74
2021/11/27 00:39:03;;;;;;;48.60;45.00;;;;;;;4.91;100.00;98414.22;2006221;71;32923;-72
2021/11/27 00:44:47;;;;;;;48.27;45.07;;;;;;;4.90;100.00;98391.39;2006309;71;32792;-68
2021/11/27 00:50:35;;;;;;;48.63;45.33;;;;;;;4.95;100.00;98383.59;2013390;71;32858;-74
2021/11/27 00:56:21;;;;;;;47.73;44.70;;;;;;;4.86;100.00;98374.44;2011509;71;33353;-73
2021/11/27 01:02:06;;;;;;;48.70;45.40;;;;;;;4.87;100.00;98368.64;1997420;71;33327;-68
2021/11/27 01:07:50;;;;;;;47.50;44.40;;;;;;;4.88;100.00;98369.44;2006489;71;33298;-73
2021/11/27 01:13:38;;;;;;;46.87;43.60;;;;;;;4.85;100.00;98372.80;2002590;70;32927;-73
2021/11/27 01:19:24;;;;;;;46.57;43.47;;;;;;;4.82;100.00;98367.94;1997321;71;32794;-68
2021/11/27 01:25:11;;;;;;;45.87;42.87;;;;;;;4.66;100.00;98346.02;2016975;71;33351;-74
2021/11/27 01:30:58;;;;;;;45.37;42.47;;;;;;;4.61;100.00;98342.81;2015164;71;33314;-73
2021/11/27 01:39:50;;;;;;;45.70;42.70;;;;;;;4.76;100.00;98345.78;2046172;69;32630;-66
2021/11/27 01:42:20;;;;;;;44.87;41.97;;;;;;;4.77;100.00;98357.85;1947921;73;26279;-71
2021/11/27 01:44:51;;;;;;;44.97;41.97;;;;;;;4.77;100.00;98353.73;2023089;71;26281;-73
2021/11/27 01:47:21;;;;;;;46.33;43.30;;;;;;;4.79;100.00;98353.44;2026880;71;26184;-68
2021/11/27 01:49:53;;;;;;;44.70;41.80;;;;;;;4.76;100.00;98349.91;2016811;70;26753;-69
2021/11/27 01:52:23;;;;;;;45.73;42.93;;;;;;;4.80;100.00;98355.86;2008440;70;26307;-74
2021/11/27 01:54:53;;;;;;;45.13;42.23;;;;;;;4.78;100.00;98357.30;2020960;70;26298;-68
2021/11/27 01:57:23;;;;;;;43.53;40.77;;;;;;;4.83;100.00;98351.14;2014652;70;26297;-68
2021/11/27 01:59:53;;;;;;;44.10;41.40;;;;;;;4.88;100.00;98352.38;2011070;70;26764;-74
2021/11/27 02:02:23;;;;;;;44.97;41.97;;;;;;;4.90;100.00;98362.52;2004661;70;26303;-68
2021/11/27 02:04:54;;;;;;;44.83;41.83;;;;;;;4.89;100.00;98360.88;2016467;70;26681;-68
2021/11/27 02:07:24;;;;;;;45.17;42.33;;;;;;;4.95;100.00;98358.84;2022840;70;26203;-69
2021/11/27 02:09:54;;;;;;;44.07;41.27;;;;;;;4.97;100.00;98370.33;2015447;70;26813;-68
2021/11/27 02:12:25;;;;;;;44.60;41.67;;;;;;;5.03;100.00;98371.30;2013350;70;26292;-68
2021/11/27 02:14:55;;;;;;;45.17;42.27;;;;;;;5.09;100.00;98366.51;2015821;70;26294;-68
2021/11/27 02:17:26;;;;;;;45.70;42.80;;;;;;;5.08;100.00;98363.50;2012889;70;26286;-68
2021/11/27 02:19:56;;;;;;;45.20;42.20;;;;;;;5.14;100.00;98372.42;2017464;71;26258;-68
2021/11/27 02:22:26;;;;;;;44.33;41.50;;;;;;;5.23;100.00;98374.69;1998488;71;26363;-74
2021/11/27 02:24:56;;;;;;;45.40;42.40;;;;;;;5.19;100.00;98369.56;1978483;72;26240;-68
2021/11/27 02:27:27;;;;;;;45.70;42.80;;;;;;;5.26;100.00;98389.23;1976455;72;26322;-69
2021/11/27 02:29:57;;;;;;;44.77;41.93;;;;;;;5.28;100.00;98393.28;1973566;72;26241;-69
2021/11/27 02:32:27;;;;;;;45.03;42.13;;;;;;;5.31;100.00;98389.91;1984445;72;26668;-73
2021/11/27 02:34:57;;;;;;;45.23;42.33;;;;;;;5.33;100.00;98389.05;1984374;72;26266;-69
2021/11/27 02:37:27;;;;;;;46.03;42.93;;;;;;;5.30;100.00;98383.36;1987680;72;26185;-68
2021/11/27 02:39:58;;;;;;;45.27;42.30;;;;;;;5.32;100.00;98387.97;1981734;70;26271;-74
2021/11/27 02:42:28;;;;;;;44.10;41.30;;;;;;;5.32;100.00;98396.23;1980257;72;26221;-74
2021/11/27 02:44:58;;;;;;;46.73;43.87;;;;;;;5.31;100.00;98411.10;1980200;72;26344;-73
2021/11/27 02:47:28;;;;;;;47.47;44.67;;;;;;;5.35;100.00;98403.85;1980178;72;26259;-73
2021/11/27 02:50:02;;;;;;;47.90;44.90;;;;;;;5.30;100.00;98397.94;1979761;72;26605;-74
2021/11/27 02:52:32;;;;;;;45.60;42.67;;;;;;;5.27;100.00;98397.72;1979516;72;26165;-73
2021/11/27 02:55:03;;;;;;;46.93;43.83;;;;;;;5.27;100.00;98409.54;1979513;72;26625;-73
2021/11/27 02:57:33;;;;;;;45.80;42.80;;;;;;;5.27;100.00;98405.97;1979586;72;26162;-73
2021/11/27 03:00:07;;;;;;;47.20;44.30;;;;;;;5.25;100.00;98418.68;1909512;74;26192;-68
2021/11/27 03:02:37;;;;;;;46.60;43.70;;;;;;;5.19;100.00;98423.22;1896302;75;26263;-68
2021/11/27 03:05:09;;;;;;;47.13;44.03;;;;;;;5.12;100.00;98420.08;1937105;74;26708;-73
2021/11/27 03:07:39;;;;;;;48.23;45.23;;;;;;;5.13;100.00;98423.09;1931197;74;26237;-74
2021/11/27 03:10:12;;;;;;;49.00;45.80;;;;;;;5.07;100.00;98412.75;1937088;74;26233;-68
2021/11/27 03:12:43;;;;;;;49.53;46.53;;;;;;;5.00;100.00;98428.31;1937031;74;26719;-67
2021/11/27 03:15:16;;;;;;;47.27;44.17;;;;;;;5.00;100.00;98448.13;1937097;74;26711;-68
2021/11/27 03:17:48;;;;;;;48.50;45.43;;;;;;;4.98;100.00;98444.30;1936966;74;26225;-68
2021/11/27 03:20:20;;;;;;;49.00;46.00;;;;;;;5.03;100.00;98441.45;1937118;74;26291;-67
2021/11/27 03:22:50;;;;;;;48.80;45.80;;;;;;;4.99;100.00;98457.50;1937065;74;26720;-67
2021/11/27 03:25:20;;;;;;;49.20;46.20;;;;;;;5.03;100.00;98461.27;1937067;74;26690;-68
2021/11/27 03:27:51;;;;;;;46.63;43.63;;;;;;;4.99;100.00;98469.31;1936953;74;26210;-73
2021/11/27 03:30:22;;;;;;;47.73;44.60;;;;;;;5.10;100.00;98470.45;1937160;74;26292;-68
2021/11/27 03:32:52;;;;;;;47.30;44.23;;;;;;;5.08;100.00;98469.41;1936977;74;26225;-74
2021/11/27 03:35:22;;;;;;;50.40;47.30;;;;;;;5.10;100.00;98481.47;1937016;74;26244;-73
2021/11/27 03:37:53;;;;;;;48.60;45.60;;;;;;;5.13;100.00;98498.75;1936953;74;26224;-67
2021/11/27 03:40:25;;;;;;;48.00;45.00;;;;;;;5.09;100.00;98502.69;1937075;73;26253;-68
2021/11/27 03:42:55;;;;;;;48.23;45.23;;;;;;;5.11;100.00;98510.05;1937044;74;26237;-67
2021/11/27 03:45:26;;;;;;;46.60;43.67;;;;;;;5.14;100.00;98513.56;1937119;74;26683;-67
2021/11/27 03:48:00;;;;;;;48.10;45.00;;;;;;;5.14;100.00;98519.62;1936971;74;26332;-67
2021/11/27 03:50:34;;;;;;;48.33;45.33;;;;;;;5.16;100.00;98525.09;1937089;74;26768;-68
2021/11/27 03:53:05;;;;;;;47.80;44.80;;;;;;;5.16;100.00;98525.09;1937075;74;26347;-73
2021/11/27 03:55:36;;;;;;;48.37;45.27;;;;;;;5.14;100.00;98532.00;1937083;74;26735;-68
2021/11/27 03:58:06;;;;;;;47.83;44.93;;;;;;;5.08;100.00;98545.07;1936958;74;26776;-69
2021/11/27 04:00:38;;;;;;;49.00;46.00;;;;;;;5.00;100.00;98543.03;1936884;74;26265;-68
2021/11/27 04:03:10;;;;;;;48.43;45.53;;;;;;;5.00;100.00;98552.66;1936902;74;26818;-73
2021/11/27 04:05:44;;;;;;;49.27;46.27;;;;;;;4.89;100.00;98549.83;1937129;74;26331;-73
2021/11/27 04:08:14;;;;;;;48.80;45.80;;;;;;;4.88;100.00;98549.02;1937077;74;26206;-73
2021/11/27 04:10:45;;;;;;;49.97;46.97;;;;;;;4.84;100.00;98556.23;1936928;74;26311;-68
2021/11/27 04:13:16;;;;;;;48.17;45.13;;;;;;;4.90;100.00;98555.04;1937093;74;26228;-67
2021/11/27 04:15:47;;;;;;;49.33;46.23;;;;;;;4.81;100.00;98564.28;1936941;74;26268;-67
2021/11/27 04:18:18;;;;;;;51.13;48.03;;;;;;;4.85;100.00;98576.31;1937023;74;26821;-73
2021/11/27 04:20:48;;;;;;;50.40;47.40;;;;;;;4.86;100.00;98591.70;1937170;74;26233;-68
2021/11/27 04:23:18;;;;;;;50.10;46.90;;;;;;;4.84;100.00;98587.05;1936991;74;26236;-73
2021/11/27 04:25:48;;;;;;;49.67;46.67;;;;;;;4.85;100.00;98597.76;1936926;74;26196;-74
2021/11/27 04:28:19;;;;;;;49.27;46.27;;;;;;;4.88;100.00;98612.27;1937027;74;26681;-73
2021/11/27 04:30:49;;;;;;;49.70;46.70;;;;;;;4.95;100.00;98620.14;1936972;74;26331;-68
2021/11/27 04:33:19;;;;;;;50.40;47.33;;;;;;;4.95;100.00;98616.83;1936988;74;26707;-73
2021/11/27 04:35:49;;;;;;;48.77;45.87;;;;;;;4.98;100.00;98621.72;1937062;74;26721;-68
2021/11/27 04:38:19;;;;;;;49.37;46.37;;;;;;;4.95;100.00;98646.27;1936955;74;26303;-68
2021/11/27 04:40:50;;;;;;;49.20;46.20;;;;;;;4.92;100.00;98634.51;1936878;73;26679;-73
2021/11/27 04:43:21;;;;;;;48.40;45.50;;;;;;;4.87;100.00;98645.04;1937108;74;26280;-73
2021/11/27 04:45:51;;;;;;;48.03;45.13;;;;;;;4.91;100.00;98647.99;1937050;74;26351;-73
2021/11/27 04:48:21;;;;;;;48.97;45.97;;;;;;;4.99;100.00;98659.13;1937008;74;27022;-73
2021/11/27 04:50:52;;;;;;;47.87;44.97;;;;;;;5.04;100.00;98676.09;1936955;74;26221;-74
2021/11/27 04:53:22;;;;;;;49.13;46.23;;;;;;;5.07;100.00;98677.41;1937125;74;26224;-74
2021/11/27 04:55:52;;;;;;;48.03;45.20;;;;;;;5.08;100.00;98674.37;1936954;74;26214;-68
2021/11/27 04:58:23;;;;;;;49.00;46.10;;;;;;;5.09;100.00;98693.89;1937100;74;26215;-74
2021/11/27 05:04:08;;;;;;;50.80;47.70;;;;;;;5.05;100.00;98695.03;1991684;71;32767;-73
2021/11/27 05:09:52;;;;;;;49.17;46.17;;;;;;;4.92;100.00;98715.06;1998549;71;32906;-74
2021/11/27 05:15:36;;;;;;;49.47;46.47;;;;;;;4.83;100.00;98734.77;2001065;71;32869;-68
2021/11/27 05:21:20;;;;;;;50.20;47.20;;;;;;;4.85;100.00;98747.64;2000444;71;32839;-69
2021/11/27 05:27:06;;;;;;;51.10;48.10;;;;;;;4.86;100.00;98770.47;2007735;71;33327;-67
2021/11/27 05:33:11;;;;;;;51.33;48.13;;;;;;;4.85;100.00;98780.64;2013514;71;32822;-73
2021/11/27 05:38:57;;;;;;;49.80;46.70;;;;;;;5.01;100.00;98805.42;2014952;71;32821;-68
2021/11/27 05:44:41;;;;;;;50.83;47.73;;;;;;;5.07;100.00;98833.68;2015005;71;32827;-73
2021/11/27 05:50:26;;;;;;;49.27;46.17;;;;;;;5.02;100.00;98861.27;2018625;71;32848;-74
2021/11/27 05:56:11;;;;;;;49.47;46.40;;;;;;;5.04;100.00;98887.94;2013962;71;33355;-74
2021/11/27 06:01:56;;;;;;;48.33;45.30;;;;;;;5.03;100.00;98916.55;2000500;71;33388;-68
2021/11/27 06:07:39;;;;;;;47.50;44.53;;;;;;;5.07;100.00;98929.16;2002358;71;32847;-72
2021/11/27 06:13:25;;;;;;;48.37;45.37;;;;;;;5.16;100.00;98952.15;2006712;71;33333;-74
2021/11/27 06:19:09;;;;;;;47.60;44.63;;;;;;;5.16;100.00;98961.23;2015138;71;32922;-68
2021/11/27 06:24:53;;;;;;;49.20;46.00;;;;;;;5.14;100.00;98983.26;2012110;71;33255;-73
2021/11/27 06:27:24;;;;;;;50.90;47.60;;;;;;;5.01;100.00;98983.42;1974540;72;26282;-73
2021/11/27 06:33:08;;;;;;;50.87;47.77;;;;;;;5.04;100.00;98993.31;2016935;71;32905;-68
2021/11/27 06:38:52;;;;;;;49.40;46.40;;;;;;;5.08;100.00;99018.84;2009553;71;33303;-73
2021/11/27 06:44:37;;;;;;;50.00;46.90;;;;;;;5.17;100.00;99037.73;2015219;71;32858;-69
2021/11/27 06:50:21;;;;;;;49.03;46.00;;;;;;;5.18;100.00;99041.54;2011635;71;33412;-68
2021/11/27 06:56:06;;;;;;;50.20;47.10;;;;;;;5.13;100.00;99053.19;2000991;71;32893;-68
2021/11/27 07:01:50;;;;;;;50.47;47.17;;;;;;;5.04;100.00;99078.59;1995360;71;32924;-66
2021/11/27 07:07:35;;;;;;;52.07;48.77;;;;;;;4.95;100.00;99102.36;2004488;71;32759;-73
2021/11/27 07:13:21;;;;;;;51.57;48.37;;;;;;;4.83;100.00;99128.62;1991827;71;32799;-68
2021/11/27 07:19:05;;;;;;;49.67;46.63;;;;;;;4.89;100.00;99142.02;2006101;71;33395;-73
2021/11/27 07:24:47;;;;;;;51.87;48.57;;;;;;;4.91;100.00;99158.24;2013400;71;32912;-73
2021/11/27 07:30:31;;;;;;;50.73;47.63;;;;;;;5.00;100.00;99185.39;2007811;71;33339;-69
2021/11/27 07:36:15;;;;;;;52.03;48.63;;;;;;;5.20;100.00;99211.89;1998708;71;32818;-68
2021/11/27 07:41:59;;;;;;;51.07;47.77;;;;;;;5.15;100.00;99226.52;2018661;71;32923;-68
2021/11/27 07:47:44;;;;;;;50.67;47.47;;;;;;;5.13;100.00;99246.64;2005899;71;33021;-73
2021/11/27 07:53:28;;;;;;;50.20;47.00;;;;;;;5.03;100.00;99263.22;2018518;71;32926;-68
2021/11/27 07:59:13;;;;;;;50.77;47.47;;;;;;;4.95;100.00;99281.17;2013300;71;32891;-73
2021/11/27 08:04:58;;;;;;;51.33;47.87;;;;;;;4.98;100.00;99292.15;2007953;71;33480;-74
2021/11/27 08:10:42;;;;;;;51.47;48.07;;;;;;;4.93;100.00;99316.94;2013414;71;32920;-73
2021/11/27 08:16:26;;;;;;;51.10;47.90;;;;;;;5.10;100.00;99330.30;2006500;71;32871;-72
2021/11/27 08:22:10;;;;;;;53.13;49.73;;;;;;;5.09;100.00;99345.19;2016980;71;32831;-74
2021/11/27 08:27:54;;;;;;;51.27;47.77;;;;;;;5.18;100.00;99361.36;2006347;71;32763;-68
2021/11/27 08:33:38;;;;;;;51.47;48.27;;;;;;;5.04;100.00;99395.02;2011183;71;32819;-68
2021/11/27 08:39:22;;;;;;;50.50;47.20;;;;;;;5.10;100.00;99413.68;2007869;71;32935;-68
2021/11/27 08:45:09;;;;;;;52.67;49.17;;;;;;;5.09;100.00;99430.50;2014919;71;32944;-70
2021/11/27 08:50:53;;;;;;;53.03;49.53;;;;;;;5.01;100.00;99453.35;1991828;71;32862;-68
2021/11/27 08:56:37;;;;;;;55.60;52.20;;;;;;;4.91;100.00;99477.36;2016956;71;32839;-73
2021/11/27 09:02:22;;;;;;;51.50;48.33;;;;;;;4.80;100.00;99508.73;2016959;71;32968;-73
2021/11/27 09:08:07;;;;;;;50.23;47.13;;;;;;;4.80;100.00;99520.56;2008016;71;33294;-70
2021/11/27 09:13:52;;;;;;;51.90;48.70;;;;;;;4.88;100.00;99530.16;2011296;71;32931;-74
2021/11/27 09:19:36;;;;;;;52.80;49.50;;;;;;;4.99;100.00;99551.05;1991745;71;33195;-73
2021/11/27 09:25:20;;;;;;;50.33;47.13;;;;;;;4.93;100.00;99555.74;2016865;71;33345;-71
2021/11/27 09:31:05;;;;;;;50.30;47.10;;;;;;;4.97;100.00;99568.38;2000401;71;32974;-70
2021/11/27 09:36:49;;;;;;;49.23;46.13;;;;;;;5.28;100.00;99583.69;2017317;71;32952;-70
2021/11/27 09:42:35;;;;;;;48.13;45.03;;;;;;;5.47;100.00;99597.12;2015335;71;33353;-69
2021/11/27 09:48:21;;;;;;;51.27;48.17;;;;;;;5.60;100.00;99599.81;2015358;70;33360;-76
2021/11/27 09:54:07;;;;;;;50.37;47.27;;;;;;;5.63;100.00;99619.89;2008369;71;33279;-76
2021/11/27 09:59:52;;;;;;;52.30;48.90;;;;;;;5.72;100.00;99630.59;2011301;71;32933;-77
2021/11/27 10:05:39;;;;;;;53.40;50.20;;;;;;;5.83;100.00;99642.37;2006184;71;32821;-77
2021/11/27 10:11:27;;;;;;;52.50;49.23;;;;;;;5.92;100.00;99653.11;2004551;71;32857;-74
2021/11/27 10:17:15;;;;;;;48.20;45.20;;;;;;;6.12;100.00;99666.77;1997235;71;32845;-68
2021/11/27 10:23:20;;;;;;;50.13;47.13;;;;;;;6.19;100.00;99682.45;2011953;71;33255;-77
2021/11/27 10:29:21;;;;;;;52.63;49.47;;;;;;;6.21;100.00;99688.49;2017335;71;32864;-70
2021/11/27 10:35:11;;;;;;;53.13;49.63;;;;;;;6.23;100.00;99687.66;2004632;71;32793;-77
2021/11/27 10:41:01;;;;;;;51.23;48.03;;;;;;;6.20;100.00;99702.58;1995811;71;32862;-76
2021/11/27 10:46:45;;;;;;;48.90;45.90;;;;;;;6.23;100.00;99708.34;1991673;71;32913;-69
2021/11/27 10:52:33;;;;;;;52.17;49.07;;;;;;;6.26;100.00;99709.70;2015058;71;32904;-69
2021/11/27 10:58:17;;;;;;;50.00;46.80;;;;;;;6.33;100.00;99712.41;2018640;71;32843;-71
2021/11/27 11:04:16;;;;;;;50.83;47.70;;;;;;;6.49;100.00;99724.18;1998649;71;32886;-69
2021/11/27 11:10:13;;;;;;;51.40;48.10;;;;;;;6.61;100.00;99723.27;2011543;71;32973;-70
2021/11/27 11:16:00;;;;;;;54.60;51.20;;;;;;;6.52;100.00;99756.70;2000491;71;32931;-77
2021/11/27 11:22:11;;;;;;;53.83;50.43;;;;;;;6.09;100.00;99774.84;2006377;71;32860;-69
2021/11/27 11:27:58;;;;;;;53.07;49.57;;;;;;;5.74;100.00;99798.34;2008302;71;32819;-69
2021/11/27 11:33:52;;;;;;;55.03;51.53;;;;;;;5.68;100.00;99806.37;1995318;71;32759;-75
2021/11/27 11:39:38;;;;;;;52.67;49.37;;;;;;;5.35;100.00;99815.48;2006460;71;32832;-75
2021/11/27 11:45:23;;;;;;;53.87;50.57;;;;;;;5.15;100.00;99821.54;2004408;71;33342;-66
2021/11/27 11:51:11;;;;;;;52.87;49.57;;;;;;;5.32;100.00;99826.22;2009473;71;33316;-75
2021/11/27 11:57:06;;;;;;;54.80;51.50;;;;;;;5.26;100.00;99830.09;2007674;71;32833;-69
2021/11/27 12:02:52;;;;;;;54.60;51.20;;;;;;;5.50;100.00;99833.39;1995358;71;32932;-76
2021/11/27 12:08:58;;;;;;;53.50;50.00;;;;;;;5.25;100.00;99836.70;1995520;71;33355;-71
2021/11/27 12:12:08;;;;;;;53.00;49.20;;;;;;;5.26;100.00;99844.66;1958848;72;26204;-71
2021/11/27 12:18:26;;;;;;;51.13;47.53;;;;;;;5.37;100.00;99852.39;2004077;71;32914;-70
2021/11/27 12:24:24;;;;;;;52.07;48.30;;;;;;;5.44;100.00;99856.50;1962866;72;33438;-76
2021/11/27 12:30:24;;;;;;;53.63;49.47;;;;;;;5.55;100.00;99871.12;2006252;71;32837;-76
2021/11/27 12:36:08;;;;;;;53.03;48.83;;;;;;;5.65;100.00;99879.94;2000538;71;32927;-76
2021/11/27 12:41:55;;;;;;;53.23;49.10;;;;;;;5.67;100.00;99878.54;2019007;71;33399;-76
2021/11/27 12:47:43;;;;;;;52.90;48.93;;;;;;;5.70;100.00;99893.67;2006624;71;32827;-76
2021/11/27 12:53:37;;;;;;;54.73;50.93;;;;;;;5.70;100.00;99905.53;2014909;71;33428;-76
2021/11/27 12:59:24;;;;;;;53.00;49.40;;;;;;;5.63;100.00;99910.50;2013496;71;32919;-75
2021/11/27 13:05:11;;;;;;;54.83;51.03;;;;;;;5.65;100.00;99917.92;2013226;71;32918;-76
2021/11/27 13:10:55;;;;;;;52.93;49.37;;;;;;;5.58;100.00;99916.00;2001029;71;32774;-71
2021/11/27 13:16:39;;;;;;;53.53;49.83;;;;;;;5.63;100.00;99922.89;2006686;71;33479;-70
2021/11/27 13:22:23;;;;;;;54.93;51.20;;;;;;;5.68;100.00;99935.84;1998751;71;33525;-71
2021/11/27 13:28:32;;;;;;;53.87;50.23;;;;;;;5.71;100.00;99942.17;1991954;71;32782;-74
2021/11/27 13:34:18;;;;;;;51.27;47.87;;;;;;;5.78;100.00;99939.95;2013237;71;32932;-71
2021/11/27 13:40:16;;;;;;;47.67;44.20;;;;;;;5.89;100.00;99941.66;1997336;71;32770;-72
2021/11/27 13:46:05;;;;;;;48.43;44.87;;;;;;;5.93;100.00;99955.16;2016917;71;32849;-75
2021/11/27 13:51:51;;;;;;;46.43;42.83;;;;;;;6.08;100.00;99979.11;2000834;71;32769;-75
2021/11/27 13:57:36;;;;;;;46.40;43.50;;;;;;;6.18;100.00;99959.26;1997090;71;32941;-75
2021/11/27 14:03:34;;;;;;;45.07;42.17;;;;;;;6.23;100.00;99952.37;2011869;71;32784;-71
2021/11/27 14:09:51;;;;;;;43.43;40.50;;;;;;;6.26;100.00;99957.31;2007965;71;32991;-75
2021/11/27 14:16:04;;;;;;;44.67;41.97;;;;;;;6.23;100.00;99947.40;1995001;71;32835;-76
2021/11/27 14:22:03;;;;;;;42.10;39.20;;;;;;;6.29;100.00;99956.75;2006602;71;32969;-75
2021/11/27 14:27:53;;;;;;;42.67;40.03;;;;;;;6.34;100.00;99949.02;2009685;71;32824;-70
2021/11/27 14:33:44;;;;;;;47.03;43.97;;;;;;;6.30;100.00;99952.89;2000907;71;32783;-75
2021/11/27 14:39:32;;;;;;;40.37;37.87;;;;;;;6.30;100.00;99961.71;2002646;71;32841;-71
2021/11/27 14:45:20;;;;;;;42.07;39.43;;;;;;;6.19;100.00;99967.81;2011442;71;32969;-69
2021/11/27 14:51:05;;;;;;;41.17;38.47;;;;;;;6.12;100.00;99966.45;2008337;71;33360;-75
2021/11/27 14:56:53;;;;;;;39.80;37.10;;;;;;;6.10;100.00;99969.48;2004091;71;32883;-70
2021/11/27 15:02:40;;;;;;;38.67;35.73;;;;;;;6.11;100.00;99982.16;2014981;71;33431;-70
2021/11/27 15:08:26;;;;;;;41.40;38.53;;;;;;;6.09;100.00;99965.06;2018672;71;32914;-76
2021/11/27 15:14:10;;;;;;;39.23;36.63;;;;;;;6.12;100.00;99971.39;2015152;71;32925;-71
2021/11/27 15:19:55;;;;;;;37.23;34.67;;;;;;;6.11;100.00;99972.52;2016867;71;33310;-70
2021/11/27 15:25:40;;;;;;;37.00;34.60;;;;;;;6.16;100.00;99980.75;2006062;71;32805;-75
2021/11/27 15:31:24;;;;;;;35.30;33.13;;;;;;;6.16;100.00;99989.61;2014136;71;33277;-75
2021/11/27 15:37:08;;;;;;;36.87;34.37;;;;;;;6.19;100.00;100002.83;2010117;70;32859;-70
2021/11/27 15:42:53;;;;;;;40.77;38.07;;;;;;;6.15;100.00;100009.45;1995626;71;32839;-75
2021/11/27 15:48:37;;;;;;;37.30;35.17;;;;;;;6.07;100.00;100014.69;2011590;71;32898;-71
2021/11/27 15:54:21;;;;;;;37.07;34.57;;;;;;;6.03;100.00;100017.18;2012013;71;32812;-70
2021/11/27 16:00:07;;;;;;;37.40;35.23;;;;;;;5.99;100.00;100033.96;1999162;71;32808;-70
2021/11/27 16:05:51;;;;;;;36.60;34.30;;;;;;;5.97;100.00;100041.70;2016693;71;32886;-75
2021/11/27 16:11:35;;;;;;;35.30;32.93;;;;;;;5.98;100.00;100044.73;2015065;71;32894;-71
2021/11/27 16:17:20;;;;;;;34.80;32.80;;;;;;;5.90;100.00;100043.33;2013456;71;32903;-75
2021/11/27 16:23:04;;;;;;;35.57;33.50;;;;;;;5.88;100.00;100064.84;2016835;71;32811;-69
2021/11/27 16:28:49;;;;;;;35.33;33.10;;;;;;;5.90;100.00;100066.75;2016850;71;32876;-71
2021/11/27 16:34:33;;;;;;;34.77;32.47;;;;;;;5.77;100.00;100068.66;2000462;71;32884;-70
2021/11/27 16:40:18;;;;;;;33.47;31.57;;;;;;;5.78;100.00;100087.38;2006432;71;32816;-70
2021/11/27 16:46:03;;;;;;;33.90;31.80;;;;;;;5.67;100.00;100098.10;2011384;71;32826;-76
2021/11/27 16:51:49;;;;;;;34.47;32.50;;;;;;;5.61;100.00;100113.78;1997177;71;33251;-71
2021/11/27 16:57:33;;;;;;;33.83;31.83;;;;;;;5.62;100.00;100118.73;2015169;71;33340;-71
2021/11/27 17:03:18;;;;;;;35.93;34.03;;;;;;;5.56;100.00;100122.05;2000419;71;32848;-76
2021/11/27 17:09:03;;;;;;;35.20;33.17;;;;;;;5.60;100.00;100138.31;2016935;71;32969;-70
2021/11/27 17:14:48;;;;;;;35.00;32.90;;;;;;;5.49;100.00;100132.47;2013411;71;32844;-75
2021/11/27 17:20:35;;;;;;;33.93;31.77;;;;;;;5.44;100.00;100148.42;1998729;71;32863;-74
2021/11/27 17:26:20;;;;;;;31.53;29.83;;;;;;;5.38;100.00;100164.66;2002804;71;32738;-75
2021/11/27 17:32:05;;;;;;;32.80;30.80;;;;;;;5.40;100.00;100162.99;2004244;71;32934;-70
2021/11/27 17:37:49;;;;;;;31.43;29.53;;;;;;;5.37;100.00;100171.80;2006725;71;32736;-71
2021/11/27 17:43:33;;;;;;;33.40;31.33;;;;;;;5.32;100.00;100178.66;2011666;71;32906;-74
2021/11/27 17:49:17;;;;;;;34.70;32.50;;;;;;;5.30;100.00;100186.37;2007866;71;32872;-76
2021/11/27 17:55:01;;;;;;;32.33;30.40;;;;;;;5.26;100.00;100198.44;2002781;71;32848;-76
2021/11/27 18:00:46;;;;;;;31.60;29.60;;;;;;;5.22;100.00;100208.90;1999205;71;32795;-70
2021/11/27 18:06:30;;;;;;;33.83;31.93;;;;;;;5.17;100.00;100219.33;2008241;71;32844;-70
2021/11/27 18:12:17;;;;;;;33.47;31.43;;;;;;;5.14;100.00;100223.97;1999307;71;33381;-71
2021/11/27 18:18:06;;;;;;;32.43;30.57;;;;;;;5.15;100.00;100222.88;2011549;71;32876;-76
2021/11/27 18:23:49;;;;;;;32.10;30.20;;;;;;;5.15;100.00;100231.68;2018883;71;33287;-76
2021/11/27 18:29:37;;;;;;;31.07;29.30;;;;;;;5.21;100.00;100238.34;2018656;71;32961;-77
2021/11/27 18:35:22;;;;;;;30.97;28.90;;;;;;;5.26;100.00;100216.91;1998693;71;32820;-71
2021/11/27 18:41:08;;;;;;;30.37;28.33;;;;;;;5.22;100.00;100233.10;2009860;71;33308;-71
2021/11/27 18:46:52;;;;;;;28.27;26.40;;;;;;;5.20;100.00;100233.93;2015174;71;32808;-76
2021/11/27 18:52:37;;;;;;;30.60;28.83;;;;;;;5.17;100.00;100237.22;2013557;71;33388;-76
2021/11/27 18:58:23;;;;;;;30.00;28.47;;;;;;;5.13;100.00;100260.87;2015320;70;33429;-70
2021/11/27 19:04:11;;;;;;;30.90;28.93;;;;;;;5.01;100.00;100267.91;2001093;71;33281;-71
2021/11/27 19:09:55;;;;;;;33.67;31.47;;;;;;;4.93;100.00;100260.69;2013801;71;32865;-76
2021/11/27 19:15:39;;;;;;;30.60;28.67;;;;;;;4.89;100.00;100258.17;2013597;71;32889;-69
2021/11/27 19:21:23;;;;;;;28.20;26.47;;;;;;;4.93;100.00;100270.31;2011484;71;32969;-71
2021/11/27 19:27:09;;;;;;;28.10;26.50;;;;;;;4.91;100.00;100262.34;2011622;71;32819;-70
2021/11/27 19:32:54;;;;;;;25.77;24.30;;;;;;;4.89;100.00;100267.80;2008202;71;32881;-75
2021/11/27 19:38:42;;;;;;;25.23;23.77;;;;;;;4.87;100.00;100268.63;2011552;71;32897;-76
2021/11/27 19:44:26;;;;;;;26.30;24.70;;;;;;;4.82;100.00;100279.59;1997436;71;33417;-76
2021/11/27 19:50:12;;;;;;;26.40;24.50;;;;;;;4.77;100.00;100306.50;2015471;71;32942;-76
2021/11/27 19:55:56;;;;;;;25.83;24.43;;;;;;;4.70;100.00;100318.27;2012044;71;32865;-70
2021/11/27 20:01:40;;;;;;;27.30;25.60;;;;;;;4.66;100.00;100324.01;2014002;71;33276;-75
2021/11/27 20:07:24;;;;;;;24.70;23.43;;;;;;;4.68;100.00;100338.86;2004504;71;33435;-76
2021/11/27 20:13:09;;;;;;;26.70;25.07;;;;;;;4.62;100.00;100346.78;2017073;71;33415;-76
2021/11/27 20:18:58;;;;;;;27.47;25.77;;;;;;;4.51;100.00;100337.58;2013117;71;32843;-71
2021/11/27 20:24:39;;;;;;;25.77;24.17;;;;;;;4.46;100.00;100347.98;2008372;71;32776;-76
2021/11/27 20:30:25;;;;;;;27.43;25.83;;;;;;;4.43;100.00;100366.37;2015494;71;32916;-76
2021/11/27 20:36:10;;;;;;;26.80;25.40;;;;;;;4.46;100.00;100378.22;2009873;71;32909;-71
2021/11/27 20:41:55;;;;;;;25.13;23.67;;;;;;;4.55;100.00;100397.31;2017253;71;32909;-70
2021/11/27 20:47:40;;;;;;;24.90;23.40;;;;;;;4.54;100.00;100401.14;2000920;71;32777;-70
2021/11/27 20:53:25;;;;;;;25.43;23.93;;;;;;;4.43;100.00;100409.53;2017068;71;33385;-70
2021/11/27 20:59:10;;;;;;;24.73;23.23;;;;;;;4.48;100.00;100406.85;2008292;71;32847;-75
2021/11/27 21:04:55;;;;;;;24.33;22.70;;;;;;;4.45;100.00;100409.55;2015403;71;33310;-76
2021/11/27 21:10:42;;;;;;;24.07;22.83;;;;;;;4.34;100.00;100403.64;1999280;71;32853;-70
2021/11/27 21:16:26;;;;;;;25.93;24.40;;;;;;;4.22;100.00;100420.81;2013334;71;33223;-75
2021/11/27 21:22:10;;;;;;;28.40;26.80;;;;;;;4.06;100.00;100407.95;2015364;71;32901;-71
2021/11/27 21:27:55;;;;;;;27.63;25.90;;;;;;;4.03;100.00;100416.67;2005918;71;32849;-70
2021/11/27 21:33:39;;;;;;;27.83;26.53;;;;;;;3.97;100.00;100420.45;2005877;71;33362;-76
2021/11/27 21:39:24;;;;;;;30.07;28.40;;;;;;;3.89;100.00;100431.33;2004221;71;32927;-70
2021/11/27 21:45:09;;;;;;;27.97;26.13;;;;;;;3.84;100.00;100437.28;2004008;71;32934;-75
2021/11/27 21:50:56;;;;;;;27.00;25.60;;;;;;;3.81;100.00;100439.97;2001046;71;33313;-70
2021/11/27 21:56:41;;;;;;;26.80;25.50;;;;;;;3.83;100.00;100447.44;2014902;71;32900;-76
2021/11/27 22:02:27;;;;;;;28.93;27.43;;;;;;;3.74;100.00;100442.06;2017022;71;32980;-71
2021/11/27 22:08:11;;;;;;;27.33;25.93;;;;;;;3.62;100.00;100461.92;2006411;71;32823;-71